createdAt,value
2022-09-12T00:03:17.856Z,95.57
2022-09-12T00:13:06.982Z,95.78
2022-09-12T00:15:41.959Z,95.98
2022-09-12T00:18:12.089Z,95.92
2022-09-12T00:23:08.473Z,96.09
2022-09-12T00:25:34.777Z,96.11
2022-09-12T00:30:27.401Z,96.24
2022-09-12T00:32:54.657Z,96.20
2022-09-12T00:35:21.029Z,96.27
2022-09-12T00:37:47.337Z,96.44
2022-09-12T00:42:39.953Z,96.57
2022-09-12T00:45:06.756Z,96.34
2022-09-12T00:52:41.041Z,96.39
2022-09-12T00:55:10.588Z,96.27
2022-09-12T00:57:49.617Z,96.28
2022-09-12T01:00:19.628Z,96.26
2022-09-12T01:02:51.485Z,95.96
2022-09-12T01:07:48.345Z,95.81
2022-09-12T01:10:14.900Z,96.00
2022-09-12T01:15:08.785Z,96.00
2022-09-12T01:18:12.500Z,95.99
2022-09-12T01:20:54.642Z,96.11
2022-09-12T01:26:49.912Z,95.95
2022-09-12T01:29:58.681Z,95.94
2022-09-12T01:32:38.275Z,95.84
2022-09-12T01:37:51.442Z,95.86
2022-09-12T01:45:45.190Z,95.91
2022-09-12T01:50:56.566Z,95.86
2022-09-12T01:53:28.310Z,95.87
2022-09-12T01:56:02.744Z,95.89
2022-09-12T01:58:38.696Z,95.76
2022-09-12T02:01:10.370Z,95.85
2022-09-12T02:03:44.839Z,95.84
2022-09-12T02:14:09.577Z,95.89
2022-09-12T02:16:51.903Z,95.94
2022-09-12T02:19:24.477Z,96.03
2022-09-12T02:24:22.993Z,96.04
2022-09-12T02:26:57.507Z,96.19
2022-09-12T02:29:23.977Z,96.21
2022-09-12T02:32:04.528Z,96.11
2022-09-12T02:34:43.508Z,96.23
2022-09-12T02:37:25.783Z,96.15
2022-09-12T02:39:54.950Z,96.36
2022-09-12T02:47:25.745Z,96.62
2022-09-12T02:49:53.720Z,96.72
2022-09-12T02:52:20.245Z,97.00
2022-09-12T02:54:47.619Z,97.04
2022-09-12T02:57:22.611Z,97.18
2022-09-12T03:05:08.068Z,97.32
2022-09-12T03:08:00.827Z,97.29
2022-09-12T03:13:22.692Z,97.26
2022-09-12T03:16:11.163Z,97.24
2022-09-12T03:24:04.897Z,97.34
2022-09-12T03:26:55.974Z,97.33
2022-09-12T03:29:25.098Z,97.29
2022-09-12T03:31:53.968Z,97.34
2022-09-12T03:36:47.581Z,97.28
2022-09-12T03:39:13.926Z,97.23
2022-09-12T03:41:40.577Z,97.28
2022-09-12T03:44:07.405Z,97.30
2022-09-12T03:49:00.269Z,97.27
2022-09-12T03:51:26.684Z,97.23
2022-09-12T03:58:46.125Z,97.07
2022-09-12T04:01:15.605Z,96.68
2022-09-12T04:03:43.950Z,96.75
2022-09-12T04:06:13.036Z,96.64
2022-09-12T04:08:39.375Z,96.70
2022-09-12T04:11:08.838Z,96.67
2022-09-12T04:13:36.446Z,96.67
2022-09-12T04:16:04.412Z,96.70
2022-09-12T04:18:31.536Z,96.59
2022-09-12T04:25:58.398Z,96.65
2022-09-12T04:28:25.917Z,96.64
2022-09-12T04:30:52.283Z,96.61
2022-09-12T04:33:18.665Z,96.78
2022-09-12T04:35:45.342Z,96.78
2022-09-12T04:38:12.132Z,96.86
2022-09-12T04:40:38.507Z,96.85
2022-09-12T04:43:08.408Z,96.91
2022-09-12T04:45:36.563Z,96.99
2022-09-12T04:48:03.293Z,97.07
2022-09-12T04:50:29.710Z,97.00
2022-09-12T04:57:48.938Z,97.28
2022-09-12T05:00:15.388Z,97.31
2022-09-12T05:02:42.098Z,97.38
2022-09-12T05:05:09.166Z,97.46
2022-09-12T05:07:36.008Z,97.50
2022-09-12T05:10:04.007Z,97.57
2022-09-12T05:12:31.355Z,97.64
2022-09-12T05:14:57.739Z,97.72
2022-09-12T05:17:24.078Z,97.77
2022-09-12T05:19:50.777Z,97.85
2022-09-12T05:22:17.087Z,98.01
2022-09-12T05:24:54.013Z,98.00
2022-09-12T05:27:20.361Z,98.10
2022-09-12T05:32:13.008Z,98.26
2022-09-12T05:34:40.184Z,98.32
2022-09-12T05:37:06.534Z,98.41
2022-09-12T05:41:59.077Z,98.43
2022-09-12T05:44:25.407Z,98.59
2022-09-12T05:46:53.464Z,98.67
2022-09-12T05:49:21.294Z,98.66
2022-09-12T05:51:47.647Z,98.68
2022-09-12T05:56:43.804Z,98.73
2022-09-12T06:09:03.153Z,99.27
2022-09-12T06:13:58.057Z,99.50
2022-09-12T06:16:27.733Z,99.52
2022-09-12T06:18:59.293Z,99.79
2022-09-12T06:23:55.995Z,99.82
2022-09-12T06:26:25.424Z,99.66
2022-09-12T06:28:54.039Z,99.54
2022-09-12T06:33:50.130Z,99.34
2022-09-12T06:36:22.379Z,99.33
2022-09-12T06:38:54.036Z,99.20
2022-09-12T06:41:20.590Z,99.09
2022-09-12T06:43:47.101Z,98.96
2022-09-12T06:46:13.445Z,98.92
2022-09-12T06:48:42.078Z,98.65
2022-09-12T06:51:17.331Z,98.53
2022-09-12T06:53:45.509Z,98.39
2022-09-12T06:56:14.519Z,98.30
2022-09-12T07:08:37.978Z,97.85
2022-09-12T07:13:40.021Z,97.43
2022-09-12T07:23:29.545Z,96.11
2022-09-12T07:25:57.769Z,95.86
2022-09-12T07:28:25.786Z,95.54
2022-09-12T07:30:53.990Z,95.28
2022-09-12T07:33:21.747Z,95.09
2022-09-12T07:40:40.615Z,94.57
2022-09-12T07:43:07.089Z,94.45
2022-09-12T07:45:33.781Z,94.25
2022-09-12T07:48:00.848Z,93.99
2022-09-12T07:52:55.001Z,93.64
2022-09-12T07:55:22.116Z,93.53
2022-09-12T07:57:51.853Z,93.21
2022-09-12T08:00:18.668Z,92.97
2022-09-12T08:02:45.328Z,92.71
2022-09-12T08:05:11.673Z,92.48
2022-09-12T08:07:38.169Z,92.80
2022-09-12T08:10:06.400Z,92.54
2022-09-12T08:12:34.429Z,92.40
2022-09-12T08:15:00.785Z,92.01
2022-09-12T08:17:27.185Z,91.87
2022-09-12T08:19:53.540Z,91.51
2022-09-12T08:22:21.787Z,91.12
2022-09-12T08:24:49.040Z,90.96
2022-09-12T08:29:41.833Z,90.79
2022-09-12T08:32:08.476Z,90.68
2022-09-12T08:34:34.893Z,90.37
2022-09-12T08:37:01.282Z,89.92
2022-09-12T08:39:27.617Z,89.75
2022-09-12T08:41:58.858Z,89.43
2022-09-12T08:44:39.800Z,89.21
2022-09-12T08:47:36.340Z,88.89
2022-09-12T08:52:34.961Z,88.12
2022-09-12T08:55:03.172Z,87.77
2022-09-12T08:57:29.542Z,86.98
2022-09-12T08:59:56.309Z,85.36
2022-09-12T09:05:23.695Z,84.74
2022-09-12T09:08:13.851Z,83.98
2022-09-12T09:11:05.326Z,82.29
2022-09-12T09:14:05.369Z,81.97
2022-09-12T09:16:36.220Z,82.41
2022-09-12T09:22:15.080Z,80.65
2022-09-12T09:27:46.907Z,79.85
2022-09-12T09:30:17.230Z,79.78
2022-09-12T09:32:48.594Z,80.28
2022-09-12T09:35:22.059Z,76.80
2022-09-12T09:40:37.417Z,77.08
2022-09-12T09:43:30.216Z,77.31
2022-09-12T09:45:59.953Z,76.56
2022-09-12T09:48:36.669Z,76.45
2022-09-12T09:51:07.072Z,77.30
2022-09-12T09:53:46.094Z,77.46
2022-09-12T09:58:49.773Z,75.96
2022-09-12T10:01:17.876Z,74.45
2022-09-12T10:03:50.440Z,75.19
2022-09-12T10:06:20.538Z,75.20
2022-09-12T10:08:48.490Z,75.65
2022-09-12T10:13:57.808Z,72.96
2022-09-12T10:16:47.963Z,71.97
2022-09-12T10:21:56.398Z,71.47
2022-09-12T10:24:22.697Z,71.11
2022-09-12T10:27:08.001Z,71.31
2022-09-12T10:29:43.845Z,69.82
2022-09-12T10:32:12.547Z,67.62
2022-09-12T10:34:43.415Z,67.32
2022-09-12T10:37:19.333Z,64.82
2022-09-12T10:39:57.238Z,64.16
2022-09-12T10:42:49.045Z,64.63
2022-09-12T10:45:20.785Z,64.54
2022-09-12T10:47:47.971Z,64.24
2022-09-12T10:50:46.498Z,63.96
2022-09-12T10:53:31.034Z,63.30
2022-09-12T10:56:22.436Z,61.85
2022-09-12T10:59:03.739Z,62.75
2022-09-12T11:01:33.934Z,62.87
2022-09-12T11:04:18.873Z,62.15
2022-09-12T11:09:27.806Z,62.13
2022-09-12T11:12:30.943Z,62.21
2022-09-12T11:15:32.609Z,59.51
2022-09-12T11:18:10.013Z,60.59
2022-09-12T11:20:58.542Z,61.30
2022-09-12T11:23:30.973Z,60.50
2022-09-12T11:26:02.821Z,58.35
2022-09-12T11:28:54.062Z,57.92
2022-09-12T11:31:46.110Z,57.27
2022-09-12T11:34:17.550Z,55.83
2022-09-12T11:37:22.587Z,56.05
2022-09-12T11:42:39.137Z,58.52
2022-09-12T11:45:45.049Z,55.92
2022-09-12T11:48:32.191Z,57.04
2022-09-12T11:51:02.760Z,56.82
2022-09-12T11:53:35.735Z,56.29
2022-09-12T11:58:42.742Z,56.58
2022-09-12T12:01:13.205Z,55.74
2022-09-12T12:03:43.388Z,55.71
2022-09-12T12:08:42.055Z,57.37
2022-09-12T12:11:10.557Z,56.12
2022-09-12T12:13:53.799Z,56.12
2022-09-12T12:16:24.777Z,56.15
2022-09-12T12:24:07.095Z,53.08
2022-09-12T12:29:11.187Z,54.14
2022-09-12T12:31:59.173Z,54.10
2022-09-12T12:36:57.586Z,54.58
2022-09-12T12:39:32.672Z,55.87
2022-09-12T12:42:02.769Z,54.50
2022-09-12T12:47:39.489Z,54.34
2022-09-12T12:55:04.091Z,53.85
2022-09-12T12:57:46.362Z,54.45
2022-09-12T13:00:24.668Z,53.64
2022-09-12T13:05:25.412Z,52.95
2022-09-12T13:07:58.258Z,52.00
2022-09-12T13:10:29.154Z,52.60
2022-09-12T13:13:02.043Z,51.77
2022-09-12T13:15:48.063Z,53.01
2022-09-12T13:18:20.012Z,53.57
2022-09-12T13:21:10.171Z,52.81
2022-09-12T13:23:36.654Z,53.86
2022-09-12T13:28:31.153Z,52.39
2022-09-12T13:31:01.854Z,52.32
2022-09-12T13:36:39.642Z,51.62
2022-09-12T13:39:08.852Z,50.90
2022-09-12T13:41:57.577Z,49.41
2022-09-12T13:46:51.777Z,49.85
2022-09-12T13:49:31.236Z,49.92
2022-09-12T13:52:14.937Z,49.86
2022-09-12T13:54:45.941Z,49.43
2022-09-12T13:57:56.330Z,49.45
2022-09-12T14:00:22.626Z,50.42
2022-09-12T14:02:49.365Z,50.97
2022-09-12T14:07:58.877Z,50.82
2022-09-12T14:10:32.975Z,50.28
2022-09-12T14:13:26.473Z,51.66
2022-09-12T14:15:55.737Z,50.86
2022-09-12T14:18:28.580Z,49.74
2022-09-12T14:20:57.272Z,48.25
2022-09-12T14:23:33.111Z,49.70
2022-09-12T14:28:31.046Z,50.85
2022-09-12T14:33:32.340Z,50.02
2022-09-12T14:38:41.256Z,49.86
2022-09-12T14:41:09.854Z,49.50
2022-09-12T14:46:34.406Z,50.44
2022-09-12T14:51:39.743Z,49.61
2022-09-12T15:02:13.304Z,50.51
2022-09-12T15:07:14.740Z,48.54
2022-09-12T15:09:46.418Z,48.41
2022-09-12T15:12:13.596Z,49.29
2022-09-12T15:17:06.231Z,50.11
2022-09-12T15:24:26.152Z,50.35
2022-09-12T15:26:53.613Z,50.48
2022-09-12T15:29:19.927Z,50.09
2022-09-12T15:31:47.537Z,47.62
2022-09-12T15:36:40.282Z,47.60
2022-09-12T15:39:06.721Z,47.55
2022-09-12T15:41:36.811Z,47.19
2022-09-12T15:44:05.075Z,47.78
2022-09-12T15:46:31.506Z,48.08
2022-09-12T15:48:58.045Z,47.86
2022-09-12T15:51:24.601Z,48.08
2022-09-12T15:53:51.539Z,48.24
2022-09-12T15:56:20.926Z,47.52
2022-09-12T15:58:58.088Z,47.38
2022-09-12T16:03:51.425Z,47.04
2022-09-12T16:06:17.760Z,47.45
2022-09-12T16:08:44.361Z,48.18
2022-09-12T16:11:16.445Z,48.85
2022-09-12T16:13:42.770Z,48.55
2022-09-12T16:16:09.402Z,49.07
2022-09-12T16:18:35.753Z,47.85
2022-09-12T16:21:02.069Z,48.46
2022-09-12T16:23:28.396Z,48.56
2022-09-12T16:26:04.183Z,48.32
2022-09-12T16:33:23.920Z,48.11
2022-09-12T16:35:51.157Z,49.21
2022-09-12T16:38:18.076Z,48.97
2022-09-12T16:43:10.740Z,48.01
2022-09-12T16:45:37.236Z,48.76
2022-09-12T16:48:03.675Z,49.43
2022-09-12T16:50:30.244Z,49.29
2022-09-12T16:52:56.766Z,49.82
2022-09-12T16:55:23.292Z,49.69
2022-09-12T16:57:49.652Z,50.53
2022-09-12T17:02:42.602Z,50.53
2022-09-12T17:05:09.489Z,50.68
2022-09-12T17:07:35.852Z,50.64
2022-09-12T17:10:02.157Z,51.00
2022-09-12T17:12:28.489Z,51.86
2022-09-12T17:14:54.797Z,52.95
2022-09-12T17:25:50.528Z,53.60
2022-09-12T17:28:16.921Z,54.18
2022-09-12T17:30:43.481Z,54.79
2022-09-12T17:33:09.845Z,54.89
2022-09-12T17:35:38.369Z,55.13
2022-09-12T17:38:05.711Z,55.89
2022-09-12T17:40:58.046Z,56.15
2022-09-12T17:43:22.064Z,56.68
2022-09-12T17:45:56.733Z,57.21
2022-09-12T17:48:23.219Z,58.11
2022-09-12T17:50:50.500Z,58.25
2022-09-12T17:53:17.518Z,58.76
2022-09-12T17:55:43.873Z,59.59
2022-09-12T17:58:10.761Z,60.34
2022-09-12T18:08:21.253Z,61.76
2022-09-12T18:13:14.681Z,62.82
2022-09-12T18:15:40.998Z,63.43
2022-09-12T18:18:07.529Z,64.10
2022-09-12T18:29:21.417Z,64.44
2022-09-12T18:39:09.062Z,64.24
2022-09-12T18:44:02.580Z,64.82
2022-09-12T18:48:57.910Z,65.86
2022-09-12T18:51:34.592Z,66.31
2022-09-12T18:54:03.450Z,66.66
2022-09-12T18:59:02.561Z,67.32
2022-09-12T19:01:31.500Z,67.50
2022-09-12T19:06:31.814Z,67.83
2022-09-12T19:11:29.334Z,68.30
2022-09-12T19:13:56.559Z,68.65
2022-09-12T19:16:25.218Z,68.64
2022-09-12T19:18:52.307Z,69.05
2022-09-12T19:21:22.318Z,69.27
2022-09-12T19:23:49.365Z,69.69
2022-09-12T19:26:16.858Z,70.24
2022-09-12T19:28:43.896Z,71.01
2022-09-12T19:33:38.860Z,72.09
2022-09-12T19:36:21.977Z,72.13
2022-09-12T19:41:20.984Z,72.99
2022-09-12T19:48:41.955Z,73.71
2022-09-12T19:56:02.666Z,74.36
2022-09-12T19:58:30.105Z,74.94
2022-09-12T20:05:49.947Z,74.64
2022-09-12T20:08:16.527Z,74.82
2022-09-12T20:13:09.080Z,74.23
2022-09-12T20:15:35.392Z,74.13
2022-09-12T20:20:28.055Z,73.98
2022-09-12T20:22:54.420Z,74.13
2022-09-12T20:27:48.050Z,74.41
2022-09-12T20:30:15.179Z,74.41
2022-09-12T20:32:42.280Z,74.78
2022-09-12T20:35:09.158Z,74.92
2022-09-12T20:37:35.862Z,75.10
2022-09-12T20:47:22.253Z,76.22
2022-09-12T20:52:14.987Z,76.91
2022-09-12T20:54:41.295Z,77.63
2022-09-12T20:57:07.751Z,77.54
2022-09-12T20:59:35.117Z,77.84
2022-09-12T21:04:28.156Z,78.61
2022-09-12T21:09:20.862Z,78.87
2022-09-12T21:11:47.186Z,79.01
2022-09-12T21:24:02.796Z,79.14
2022-09-12T21:26:29.961Z,78.52
2022-09-12T21:33:50.726Z,78.25
2022-09-12T21:36:17.453Z,78.31
2022-09-12T21:38:43.785Z,78.25
2022-09-12T21:41:12.769Z,77.78
2022-09-12T21:43:40.789Z,77.45
2022-09-12T21:46:07.465Z,77.36
2022-09-12T21:48:34.297Z,76.87
2022-09-12T21:53:27.441Z,75.62
2022-09-12T21:55:53.976Z,75.63
2022-09-12T21:58:20.313Z,75.90
2022-09-12T22:00:47.015Z,76.53
2022-09-12T22:13:01.189Z,77.38
2022-09-12T22:20:35.379Z,77.35
2022-09-12T22:23:24.409Z,77.40
2022-09-12T22:28:19.612Z,77.44
2022-09-12T22:30:48.958Z,77.68
2022-09-12T22:38:08.976Z,78.56
2022-09-12T22:40:35.312Z,78.45
2022-09-12T22:45:28.170Z,78.73
2022-09-12T22:50:23.509Z,78.55
2022-09-12T22:52:51.774Z,79.09
2022-09-12T22:55:18.087Z,79.30
2022-09-12T22:57:44.670Z,79.10
2022-09-12T23:02:38.032Z,79.48
2022-09-12T23:05:04.590Z,79.83
2022-09-12T23:07:32.007Z,80.11
2022-09-12T23:09:58.326Z,80.42
2022-09-12T23:12:24.640Z,80.63
2022-09-12T23:14:50.949Z,80.87
2022-09-12T23:22:10.019Z,79.57
2022-09-12T23:27:03.759Z,78.75
2022-09-12T23:29:34.210Z,78.77
2022-09-12T23:36:56.195Z,79.22
2022-09-12T23:39:26.024Z,79.18
2022-09-12T23:41:52.324Z,78.85
2022-09-12T23:49:11.182Z,78.49
2022-09-12T23:51:37.505Z,78.35
2022-09-12T23:54:04.162Z,77.87
2022-09-12T23:56:30.473Z,77.54
2022-09-12T23:58:56.805Z,77.29
